Portada
METAR-TAF:

METAR-TAF

Aeropuertos :

Brescia Ghedi, Italia

latitud: 45-25N, longitud: 010-17E, altitud: 102 m

Observación

El informe se hizo hace 53 minutos, a las 23:55 UTC
Viento 4 kt del norte
Temperatura 18°C
Humedad 88%
Presión 1010 hPa
Visibilidad 10 km o más
sin nubes por debajo de 1500 m y sin presencia de cumulonimbus.

METAR: LIPL 022355Z 01004KT CAVOK 18/16 Q1010 RMK FEW FEW130 VIS MIN 9999 WIND THR31 04003KT WIND THR13 36004KT BLU

Hora: 02:48 (00:48 UTC)

Pronóstico

El informe se hizo hace 1 hora y 48 minutos, a las 23:00 UTC
Pronóstico válido del 03 a las 00 UTC al 03 a las 09 UTC
Viento 3 kt del norte-noreste
Visibilidad 10 km o más
Nubes dispersas a una altura de 3000 ft
Nubes dispersas a una altura de 6000 ft

TAF: LIPL 022300Z 0300/0309 03003KT 9999 SCT030 SCT060

Observaciones y pronósticos meteorológicos de más de 4000 aeropuertos (mensajes METAR y TAF).

Los puntos amarillos y rojos representan las estaciones disponibles.

Ponga el ratón en el punto deseado para ver el nombre de la estación.

Haga clic para ver las observaciones y los pronósticos meteorológicos.

Para cambiar el mapa : haga clic en los botones verdes con una cruz de color negro para hacer un zoom, en el botón verde con un guión para alejar o en las flechas verdes para mapas adyacentes.


METAR-TAF: